Scarborough, Trinidad And Tobago

6:14 PM AST on July 23, 2016 (GMT -0400)
Pigeon Point | | Change Station

Elev 6 ft 11.17 °N, 60.84 °W | Updated 3 minutes ago

Partly Cloudy
Partly Cloudy
84.4 °F
Feels Like 92 °F
N
0.0
Wind Variable Wind from North
Gusts 0.0 mph

Today
High -- | Low -- °F
--% Chance of Precip.
Yesterday
High -- | Low -- °F
Precip. -- in
Pressure 29.92 in
Visibility 6.2 miles
Clouds Few 1800 ft
Heat Index 92 °F
Dew Point 74 °F
Humidity 71%
Rainfall in
Snow Depth Not available.
5:49 AM 6:29 PM
Waning Gibbous, 82% visible
METAR TTCP 232200Z 11012KT 9999 FEW018 29/23 Q1013 NOSIG
Pressure 29.92 in
Visibility 6.2 miles
Clouds Few 1800 ft
Heat Index 92 °F
Dew Point 74 °F
Humidity 71%
Rainfall in
Snow Depth Not available.
5:49 AM 6:29 PM
Waning Gibbous, 82% visible
METAR TTCP 232200Z 11012KT 9999 FEW018 29/23 Q1013 NOSIG

10-Day Weather Forecast

No radar image for this location.
×

Almanac

Astronomy

Jul. 23, 2016 Rise Set
Actual Time
Civil Twilight
Nautical Twilight
Astronomical Twilight
Moon
Length of Visible Light
Length of Day
Tomorrow will be .
, % of the Moon is Illuminated

Today's Extremes

Country Highs Country Lows

Community

WunderPhotos

Upload Photos

1,926,940 photos uploaded!

WunderBlog® & News

Nearby

Air Quality

  Air Quality AQ Index Pollutant
Not available.

Snow Depth

Station Depth Elevation

Earthquake Activity

City Distance Mag. Time & Date
Minimum magnitude displayed is 2.5.

Coastal Water Temperatures

Place Temperature

Stations

Nearby Weather Stations

Station Location Temp. Windchill Dew Point Humidity Wind Precip. Elev Updated Type